METAR AND TAF INFORMATION

METAR FOR SVJM
ADDS - METARS form results

(0849 UTC 29 September 2022)
Data provider http://aviationweather.gov/metar/data/
 
METAR text: SVJM 290803Z AUTO 00004KT NCD 21/21 Q1010
Conditions at: SVJM (SAN JUAN LOS MOR, VE) observed 0803 UTC 29 September 2022
Temperature: 21.0°C (70°F)
Dewpoint: 21.0°C (70°F) [RH = 100%]
Pressure (altimeter): 29.82 inches Hg (1010.0 mb)
Winds: variable direction winds at 5 MPH (4 knots; 2.1 m/s)
Visibility: missing
Ceiling: at least 12,000 feet AGL
Clouds: sky clear below 12,000 feet AGL
Weather: no significant weather observed at this time

 

AIRPORT MAP

 

RUNWAY INFORMATION

Runway 06 Runway length 4990 ft Runway width 75 ft
Runway elevation 0 ft Runway displaced threshold 0 ft Runway heading 49
Runway 24 Runway length 4990 ft Runway width 75 ft
Runway elevation 0 ft Runway displaced threshold 0 ft Runway heading 229

 

AIRPORT FREQUENCIES


 

AIRPORT NEAR NAVIGATION AIDS